Time;durP1;ratioP1;P1;durP2;ratioP2;P2;SDS_P1;SDS_P2;PMS_P1;PMS_P2;Temp;Humidity;BMP_temperature;BMP_pressure;BME280_temperature;BME280_humidity;BME280_pressure;Samples;Min_cycle;Max_cycle;Signal;HPM_P1;HPM_P2
2021/05/25 00:02:14;;;;;;;1999.90;999.90;;;12.80;99.90;;;;;;5005198;28;21019;-83
2021/05/25 00:04:42;;;;;;;1999.90;999.90;;;12.80;99.90;;;;;;5005138;28;20456;-83
2021/05/25 00:07:19;;;;;;;1999.90;999.90;;;12.90;99.90;;;;;;5004997;28;20169;-82
2021/05/25 00:09:51;;;;;;;1999.90;999.90;;;12.90;99.90;;;;;;5004724;28;20169;-83
2021/05/25 00:13:13;;;;;;;;;;;;;;;;;;;;;
2021/05/25 00:15:52;;;;;;;;;;;;;;;;;;;;;
2021/05/25 00:18:35;;;;;;;;;;;;;;;;;;;;;
2021/05/25 00:21:16;;;;;;;1999.90;999.90;;;12.80;99.90;;;;;;5023151;28;20184;-83
2021/05/25 00:24:19;;;;;;;1999.90;999.90;;;12.80;99.90;;;;;;5022117;28;20235;-83
2021/05/25 00:26:51;;;;;;;1999.90;999.90;;;12.70;99.90;;;;;;4993759;28;20412;-82
2021/05/25 00:29:24;;;;;;;1999.90;999.90;;;12.60;99.90;;;;;;5004244;28;20429;-83
2021/05/25 00:32:01;;;;;;;1999.90;999.90;;;12.50;99.90;;;;;;5023010;28;20257;-83
2021/05/25 00:34:35;;;;;;;1999.90;999.90;;;12.50;99.90;;;;;;5000524;28;20190;-83
2021/05/25 00:40:34;;;;;;;1999.90;999.90;;;12.50;99.90;;;;;;4996582;28;20258;-83
2021/05/25 00:43:28;;;;;;;1999.90;999.90;;;12.50;99.90;;;;;;4983783;28;20269;-83
2021/05/25 00:49:15;;;;;;;1999.90;999.90;;;12.60;99.90;;;;;;4939339;29;20263;-83
2021/05/25 00:52:02;;;;;;;1999.90;999.90;;;12.60;99.90;;;;;;4939153;29;20520;-83
2021/05/25 00:54:56;;;;;;;1999.90;999.90;;;12.40;99.90;;;;;;4923105;29;20181;-83
2021/05/25 00:57:47;;;;;;;1999.90;999.90;;;12.40;99.90;;;;;;4924128;29;20179;-82
2021/05/25 01:00:55;;;;;;;1999.90;999.90;;;12.50;99.90;;;;;;5004193;28;20664;-83
2021/05/25 01:07:01;;;;;;;1999.90;999.90;;;12.40;99.90;;;;;;5017761;28;20630;-83
2021/05/25 01:09:53;;;;;;;1999.90;999.90;;;12.20;99.90;;;;;;5000631;28;20716;-83
2021/05/25 01:12:24;;;;;;;1999.90;999.90;;;12.20;99.90;;;;;;5001357;28;20180;-83
2021/05/25 01:15:03;;;;;;;1999.90;999.90;;;12.10;99.90;;;;;;5001330;28;20205;-83
2021/05/25 01:17:48;;;;;;;1999.90;999.90;;;12.00;99.90;;;;;;5000922;28;20188;-83
2021/05/25 01:20:53;;;;;;;1999.90;999.90;;;12.10;99.90;;;;;;5001152;28;20173;-83
2021/05/25 01:23:55;;;;;;;1999.90;999.90;;;12.00;99.90;;;;;;5017547;28;20201;-83
2021/05/25 01:26:50;;;;;;;1999.90;999.90;;;12.00;99.90;;;;;;5001013;28;20165;-83
2021/05/25 01:29:26;;;;;;;1999.90;999.90;;;12.00;99.90;;;;;;4963826;28;20198;-83
2021/05/25 01:32:05;;;;;;;1999.90;999.90;;;12.00;99.90;;;;;;5000722;28;20308;-83
2021/05/25 01:35:28;;;;;;;;;;;;;;;;;;;;;
2021/05/25 01:37:57;;;;;;;1999.90;999.90;;;12.10;99.90;;;;;;5010406;28;20192;-84
2021/05/25 01:40:32;;;;;;;1999.90;999.90;;;12.00;99.90;;;;;;5018559;28;20173;-84
2021/05/25 01:43:03;;;;;;;1999.90;999.90;;;12.00;99.90;;;;;;5018307;28;20160;-84
2021/05/25 01:46:10;;;;;;;;;;;;;;;;;;;;;
2021/05/25 01:48:53;;;;;;;;;;;;;;;;;;;;;
2021/05/25 01:51:24;;;;;;;1999.90;999.90;;;11.80;99.90;;;;;;4938467;29;20275;-82
2021/05/25 01:54:03;;;;;;;1999.90;999.90;;;11.80;99.90;;;;;;4985564;28;20200;-83
2021/05/25 01:56:58;;;;;;;1999.90;999.90;;;11.80;99.90;;;;;;5000910;28;20672;-83
2021/05/25 01:59:47;;;;;;;1999.90;999.90;;;11.80;99.90;;;;;;4999885;28;20285;-82
2021/05/25 02:02:52;;;;;;;1999.90;999.90;;;11.90;99.90;;;;;;4996437;28;20182;-82
2021/05/25 02:08:24;;;;;;;1999.90;999.90;;;11.70;99.90;;;;;;5017242;28;20190;-83
2021/05/25 02:11:17;;;;;;;1999.90;999.90;;;11.70;99.90;;;;;;4999636;28;20212;-83
2021/05/25 02:14:09;;;;;;;1999.90;999.90;;;11.70;99.90;;;;;;4999165;28;20197;-83
2021/05/25 02:17:07;;;;;;;1999.90;999.90;;;11.70;99.90;;;;;;4999875;28;20174;-82
2021/05/25 02:19:41;;;;;;;1999.90;999.90;;;11.80;99.90;;;;;;4999808;28;20728;-83
2021/05/25 02:22:26;;;;;;;1999.90;999.90;;;11.70;99.90;;;;;;4999305;28;20177;-82
2021/05/25 02:25:03;;;;;;;1999.90;999.90;;;11.60;99.90;;;;;;5000080;28;20208;-82
2021/05/25 02:28:11;;;;;;;1999.90;999.90;;;11.60;99.90;;;;;;5017111;28;20164;-82
2021/05/25 02:31:08;;;;;;;1999.90;999.90;;;11.50;99.90;;;;;;5005138;28;20633;-82
2021/05/25 02:33:52;;;;;;;1999.90;999.90;;;11.60;99.90;;;;;;4999157;28;20573;-83
2021/05/25 02:36:24;;;;;;;1999.90;999.90;;;11.60;99.90;;;;;;5017484;28;20166;-83
2021/05/25 02:38:55;;;;;;;1999.90;999.90;;;11.60;99.90;;;;;;4998758;28;20224;-83
2021/05/25 02:41:32;;;;;;;1999.90;999.90;;;11.50;99.90;;;;;;4999289;28;20256;-83
2021/05/25 02:44:19;;;;;;;1999.90;999.90;;;11.60;99.90;;;;;;4999173;28;20202;-83
2021/05/25 02:50:10;;;;;;;1999.90;999.90;;;11.60;99.90;;;;;;4985763;28;20177;-82
2021/05/25 02:53:00;;;;;;;1999.90;999.90;;;11.60;99.90;;;;;;5016870;28;20181;-83
2021/05/25 02:55:46;;;;;;;1999.90;999.90;;;11.70;99.90;;;;;;4998529;28;20174;-82
2021/05/25 02:58:16;;;;;;;1999.90;999.90;;;11.60;99.90;;;;;;4999745;28;20189;-82
2021/05/25 03:00:49;;;;;;;1999.90;999.90;;;11.70;99.90;;;;;;4997913;28;20189;-82
2021/05/25 03:03:33;;;;;;;1999.90;999.90;;;11.70;99.90;;;;;;4998402;28;20186;-83
2021/05/25 03:06:05;;;;;;;1999.90;999.90;;;11.70;99.90;;;;;;4998548;28;20172;-83
2021/05/25 03:08:56;;;;;;;1999.90;999.90;;;11.60;99.90;;;;;;4997400;28;20186;-82
2021/05/25 03:11:22;;;;;;;1999.90;999.90;;;11.70;99.90;;;;;;4998538;28;20170;-82
2021/05/25 03:14:28;;;;;;;1999.90;999.90;;;11.60;99.90;;;;;;4998870;28;20219;-82
2021/05/25 03:17:12;;;;;;;1999.90;999.90;;;11.50;99.90;;;;;;4998368;28;20449;-83
2021/05/25 03:20:03;;;;;;;1999.90;999.90;;;11.50;99.90;;;;;;4998218;28;20197;-83
2021/05/25 03:22:47;;;;;;;1999.90;999.90;;;11.40;99.90;;;;;;4999040;28;20162;-82
2021/05/25 03:25:39;;;;;;;1999.90;999.90;;;11.30;99.90;;;;;;4998705;28;20193;-82
2021/05/25 03:28:23;;;;;;;1999.90;999.90;;;11.30;99.90;;;;;;4994063;28;20200;-82
2021/05/25 03:34:36;;;;;;;1999.90;999.90;;;11.40;99.90;;;;;;4987611;28;20185;-82
2021/05/25 03:37:25;;;;;;;1999.90;999.90;;;11.40;99.90;;;;;;5015039;28;20181;-82
2021/05/25 03:40:19;;;;;;;1999.90;999.90;;;11.40;99.90;;;;;;4998316;28;20185;-82
2021/05/25 03:43:12;;;;;;;;;;;;;;;;;;;;;
2021/05/25 03:45:49;;;;;;;1999.90;999.90;;;11.20;99.90;;;;;;5015639;28;20266;-82
2021/05/25 03:49:00;;;;;;;1999.90;999.90;;;11.30;99.90;;;;;;4998065;28;20186;-83
2021/05/25 04:00:25;;;;;;;1999.90;999.90;;;11.10;99.90;;;;;;5015715;28;20691;-83
2021/05/25 04:02:59;;;;;;;1999.90;999.90;;;11.00;99.90;;;;;;5014677;28;20162;-82
2021/05/25 04:05:43;;;;;;;1999.90;999.90;;;11.00;99.90;;;;;;5015037;28;20592;-82
2021/05/25 04:08:19;;;;;;;1999.90;999.90;;;11.10;99.90;;;;;;5014991;28;20182;-83
2021/05/25 04:10:54;;;;;;;1999.90;999.90;;;11.10;99.90;;;;;;5016109;28;20165;-82
2021/05/25 04:13:54;;;;;;;1999.90;999.90;;;11.20;99.90;;;;;;4999187;28;20181;-82
2021/05/25 04:16:46;;;;;;;1999.90;999.90;;;11.20;99.90;;;;;;5019405;28;20174;-82
2021/05/25 04:19:43;;;;;;;1999.90;999.90;;;11.30;99.90;;;;;;5000240;28;20194;-82
2021/05/25 04:22:20;;;;;;;1999.90;999.90;;;11.40;99.90;;;;;;4987556;28;20177;-82
2021/05/25 04:25:22;;;;;;;1999.90;999.90;;;11.40;99.90;;;;;;5002155;28;20197;-82
2021/05/25 04:31:01;;;;;;;1999.90;999.90;;;11.50;99.90;;;;;;5005299;28;20204;-83
2021/05/25 04:34:14;;;;;;;1999.90;999.90;;;11.50;99.90;;;;;;5019304;28;20154;-82
2021/05/25 04:37:03;;;;;;;1999.90;999.90;;;11.50;99.90;;;;;;5000873;28;20162;-82
2021/05/25 04:39:46;;;;;;;1999.90;999.90;;;11.60;99.90;;;;;;4981800;28;20510;-82
2021/05/25 04:42:23;;;;;;;1999.90;999.90;;;11.60;99.90;;;;;;5000874;28;20211;-82
2021/05/25 04:45:27;;;;;;;1999.90;999.90;;;11.70;99.90;;;;;;5001066;28;20181;-82
2021/05/25 04:48:22;;;;;;;1999.90;999.90;;;11.80;99.90;;;;;;4961675;28;20299;-82
2021/05/25 04:58:07;;;;;;;1999.90;999.90;;;11.90;99.90;;;;;;4940805;28;20189;-82
2021/05/25 05:04:24;;;;;;;1999.90;999.90;;;11.60;99.90;;;;;;5018553;28;20213;-82
2021/05/25 05:07:07;;;;;;;1999.90;999.90;;;11.70;99.90;;;;;;5002067;28;20185;-82
2021/05/25 05:09:57;;;;;;;1999.90;999.90;;;11.70;99.90;;;;;;5000533;28;20210;-82
2021/05/25 05:12:37;;;;;;;1999.90;999.90;;;11.60;99.90;;;;;;5003158;28;20606;-82
2021/05/25 05:15:25;;;;;;;1999.90;999.90;;;11.60;99.90;;;;;;5002628;28;20249;-82
2021/05/25 05:20:38;;;;;;;1999.90;999.90;;;11.60;99.90;;;;;;5057824;28;20618;-82
2021/05/25 05:23:19;;;;;;;1999.90;999.90;;;11.70;99.90;;;;;;5040591;28;20226;-83
2021/05/25 05:25:48;;;;;;;1999.90;999.90;;;11.60;99.90;;;;;;5059507;28;20271;-83
2021/05/25 05:28:23;;;;;;;1999.90;999.90;;;11.60;99.90;;;;;;5059372;28;20550;-82
2021/05/25 05:31:15;;;;;;;1999.90;999.90;;;11.50;99.90;;;;;;5059138;28;20184;-82
2021/05/25 05:34:03;;;;;;;1999.90;999.90;;;11.50;99.90;;;;;;5057610;28;20647;-83
2021/05/25 05:36:35;;;;;;;1999.90;999.90;;;11.70;99.90;;;;;;5155887;22;20770;-82
2021/05/25 05:39:58;;;;;;;1999.90;999.90;;;11.60;99.90;;;;;;5081240;28;20187;-84
2021/05/25 05:42:36;;;;;;;1999.90;999.90;;;11.60;99.90;;;;;;5081898;28;20171;-83
2021/05/25 05:45:10;;;;;;;1999.90;999.90;;;11.50;99.90;;;;;;5083877;28;20718;-83
2021/05/25 05:48:07;;;;;;;1999.90;999.90;;;11.60;99.90;;;;;;5081496;28;20163;-83
2021/05/25 05:51:33;;;;;;;;;;;;;;;;;;;;;
2021/05/25 06:01:57;;;;;;;1999.90;999.90;;;11.60;99.90;;;;;;4944013;29;20172;-81
2021/05/25 06:05:12;;;;;;;1999.90;999.90;;;11.50;99.90;;;;;;4929092;29;20193;-83
2021/05/25 06:08:13;;;;;;;1999.90;999.90;;;11.40;99.90;;;;;;4931024;29;20199;-83
2021/05/25 06:10:49;;;;;;;;;;;;;;;;;;;;;
2021/05/25 06:13:40;;;;;;;;;;;;;;;;;;;;;
2021/05/25 06:16:43;;;;;;;1999.90;999.90;;;11.40;99.90;;;;;;5085001;28;20239;-82
2021/05/25 06:19:09;;;;;;;1999.90;999.90;;;11.60;99.90;;;;;;5083643;28;20194;-85
2021/05/25 06:21:35;;;;;;;1999.90;999.90;;;11.50;99.90;;;;;;5087339;28;20164;-84
2021/05/25 06:24:01;;;;;;;1999.90;999.90;;;11.40;99.90;;;;;;5087287;28;20471;-83
2021/05/25 06:26:27;;;;;;;1999.90;999.90;;;11.50;99.90;;;;;;5086112;28;20160;-85
2021/05/25 06:28:52;;;;;;;1999.90;999.90;;;11.30;99.90;;;;;;5088409;28;20425;-84
2021/05/25 06:31:18;;;;;;;1999.90;999.90;;;11.20;99.90;;;;;;5087159;28;20235;-84
2021/05/25 06:33:44;;;;;;;1999.90;999.90;;;11.30;99.90;;;;;;5086667;28;20459;-85
2021/05/25 06:36:10;;;;;;;1999.90;999.90;;;11.20;99.90;;;;;;5088034;28;20179;-85
2021/05/25 06:38:35;;;;;;;1999.90;999.90;;;11.20;99.90;;;;;;5088203;28;20184;-83
2021/05/25 06:41:01;;;;;;;1999.90;999.90;;;11.30;99.90;;;;;;5083302;28;20182;-83
2021/05/25 06:43:27;;;;;;;1999.90;999.90;;;11.20;99.90;;;;;;5082265;28;20187;-84
2021/05/25 06:45:52;;;;;;;1999.90;999.90;;;11.30;99.90;;;;;;5083315;28;20639;-84
2021/05/25 06:48:21;;;;;;;1999.90;999.90;;;11.40;99.90;;;;;;5081573;28;20184;-84
2021/05/25 06:50:47;;;;;;;1999.90;999.90;;;11.30;99.90;;;;;;5082424;28;20247;-84
2021/05/25 06:53:12;;;;;;;1999.90;999.90;;;11.20;99.90;;;;;;5079318;28;20207;-83
2021/05/25 06:55:38;;;;;;;1999.90;999.90;;;11.20;99.90;;;;;;5079430;28;20165;-84
2021/05/25 06:58:04;;;;;;;1999.90;999.90;;;11.20;99.90;;;;;;5085233;28;20183;-85
2021/05/25 07:00:30;;;;;;;1999.90;999.90;;;11.20;99.90;;;;;;5085050;28;20170;-85
2021/05/25 07:02:55;;;;;;;1999.90;999.90;;;11.10;99.90;;;;;;5085065;28;20916;-84
2021/05/25 07:05:21;;;;;;;1999.90;999.90;;;11.10;99.90;;;;;;5082026;28;20204;-83
2021/05/25 07:07:46;;;;;;;1999.90;999.90;;;11.20;99.90;;;;;;5083583;28;20180;-85
2021/05/25 07:10:15;;;;;;;1999.90;999.90;;;11.20;99.90;;;;;;5081237;28;20164;-82
2021/05/25 07:12:40;;;;;;;1999.90;999.90;;;11.00;99.90;;;;;;5082917;28;20178;-84
2021/05/25 07:15:07;;;;;;;1999.90;999.90;;;11.20;99.90;;;;;;5083686;28;20172;-83
2021/05/25 07:18:23;;;;;;;1999.90;999.90;;;11.30;99.90;;;;;;5077957;28;20250;-84
2021/05/25 07:20:37;;;;;;;1999.90;999.90;;;11.50;99.90;;;;;;5070771;28;20176;-82
2021/05/25 07:23:07;;;;;;;1999.90;999.90;;;11.50;99.90;;;;;;5083432;28;20175;-83
2021/05/25 07:25:44;;;;;;;1999.90;999.90;;;11.50;99.90;;;;;;5084453;28;20137;-83
2021/05/25 07:28:29;;;;;;;1999.90;999.90;;;11.60;99.90;;;;;;5083853;28;20186;-84
2021/05/25 07:31:08;;;;;;;1999.90;999.90;;;11.50;99.90;;;;;;5081371;28;20163;-86
2021/05/25 07:33:34;;;;;;;1999.90;999.90;;;11.30;99.90;;;;;;5083343;28;20172;-86
2021/05/25 07:36:03;;;;;;;1999.90;999.90;;;11.10;99.90;;;;;;5084145;28;20266;-84
2021/05/25 07:38:29;;;;;;;1999.90;999.90;;;11.00;99.90;;;;;;5084160;28;20430;-84
2021/05/25 07:40:55;;;;;;;1999.90;999.90;;;10.90;99.90;;;;;;5082866;28;20179;-85
2021/05/25 07:43:21;;;;;;;1999.90;999.90;;;10.80;99.90;;;;;;5083954;28;20184;-84
2021/05/25 07:45:49;;;;;;;1999.90;999.90;;;10.80;99.90;;;;;;5082671;28;20168;-84
2021/05/25 07:48:15;;;;;;;1999.90;999.90;;;10.90;99.90;;;;;;5086278;28;20223;-84
2021/05/25 07:50:41;;;;;;;1999.90;999.90;;;11.00;99.90;;;;;;5086873;28;20639;-83
2021/05/25 07:53:07;;;;;;;1999.90;999.90;;;11.00;99.90;;;;;;5086257;28;20160;-83
2021/05/25 07:55:34;;;;;;;1999.90;999.90;;;11.10;99.90;;;;;;5088789;28;20164;-85
2021/05/25 07:58:03;;;;;;;1999.90;999.90;;;11.30;99.90;;;;;;5089900;28;20487;-85
2021/05/25 08:00:29;;;;;;;1999.90;999.90;;;11.40;99.90;;;;;;5090014;28;20160;-85
2021/05/25 08:02:59;;;;;;;1999.90;999.90;;;11.50;99.90;;;;;;5089067;28;20162;-85
2021/05/25 08:05:28;;;;;;;1999.90;999.90;;;11.60;99.90;;;;;;5086923;28;20199;-85
2021/05/25 08:07:57;;;;;;;1999.90;999.90;;;11.80;99.90;;;;;;5089450;28;20543;-85
2021/05/25 08:10:23;;;;;;;1999.90;999.90;;;12.10;99.90;;;;;;5086290;28;20168;-85
2021/05/25 08:12:51;;;;;;;1999.90;999.90;;;12.40;99.90;;;;;;5087062;28;20164;-85
2021/05/25 08:15:18;;;;;;;1999.90;999.90;;;12.60;99.90;;;;;;5090084;28;20164;-85
2021/05/25 08:20:29;;;;;;;1999.90;999.90;;;12.90;99.90;;;;;;5089658;28;20220;-86
2021/05/25 08:22:58;;;;;;;1999.90;999.90;;;12.90;99.90;;;;;;5090540;28;20176;-86
2021/05/25 08:25:32;;;;;;;1999.90;999.90;;;12.90;99.90;;;;;;5087799;28;20670;-85
2021/05/25 08:28:00;;;;;;;1999.90;999.90;;;12.80;99.90;;;;;;5085417;28;20219;-83
2021/05/25 08:30:30;;;;;;;1999.90;999.90;;;12.70;99.90;;;;;;5085837;28;20210;-84
2021/05/25 08:32:58;;;;;;;1999.90;999.90;;;12.60;99.90;;;;;;5086148;28;20188;-86
2021/05/25 08:35:26;;;;;;;1999.90;999.90;;;12.40;99.90;;;;;;5084032;28;20207;-84
2021/05/25 08:38:36;;;;;;;;;;;;;;;;;;;;;
2021/05/25 08:41:37;;;;;;;1999.90;999.90;;;12.40;99.90;;;;;;5083706;28;20679;-82
2021/05/25 08:45:02;;;;;;;1999.90;999.90;;;12.30;99.90;;;;;;5037977;28;20207;-85
2021/05/25 08:47:07;;;;;;;1999.90;999.90;;;12.10;99.90;;;;;;5080820;28;20164;-84
2021/05/25 08:49:35;;;;;;;1999.90;999.90;;;12.30;99.90;;;;;;5084481;28;20190;-84
2021/05/25 08:52:08;;;;;;;1999.90;999.90;;;12.50;99.90;;;;;;5084287;28;20168;-85
2021/05/25 08:57:52;;;;;;;1999.90;999.90;;;12.80;99.90;;;;;;5017428;28;20586;-84
2021/05/25 09:01:06;;;;;;;1999.90;999.90;;;13.00;99.90;;;;;;5004801;28;20178;-85
2021/05/25 09:04:15;;;;;;;1999.90;999.90;;;13.10;99.90;;;;;;5036139;28;20295;-83
2021/05/25 09:07:14;;;;;;;1999.90;999.90;;;13.10;99.90;;;;;;5079910;28;20160;-83
2021/05/25 09:10:07;;;;;;;1999.90;999.90;;;13.20;99.90;;;;;;5079824;28;20280;-83
2021/05/25 09:13:20;;;;;;;;;;;;;;;;;;;;;
2021/05/25 09:16:37;;;;;;;;;;;;;;;;;;;;;
2021/05/25 09:19:57;;;;;;;1999.90;999.90;;;13.00;99.90;;;;;;5081159;28;21016;-84
2021/05/25 09:22:45;;;;;;;1999.90;999.90;;;12.90;99.90;;;;;;5079857;28;20175;-85
2021/05/25 09:25:37;;;;;;;;;;;;;;;;;;;;;
2021/05/25 09:28:09;;;;;;;1999.90;999.90;;;13.10;99.90;;;;;;5084323;28;20521;-84
2021/05/25 09:30:36;;;;;;;1999.90;999.90;;;13.10;99.90;;;;;;5086460;28;20367;-85
2021/05/25 09:33:07;;;;;;;1999.90;999.90;;;13.00;99.90;;;;;;5087736;28;20399;-85
2021/05/25 09:35:42;;;;;;;1999.90;999.90;;;13.10;99.90;;;;;;5087464;28;20401;-85
2021/05/25 09:38:13;;;;;;;1999.90;999.90;;;13.40;99.90;;;;;;5082025;28;20209;-84
2021/05/25 09:40:42;;;;;;;1999.90;999.90;;;13.50;99.90;;;;;;5080918;28;20479;-84
2021/05/25 09:43:23;;;;;;;1999.90;999.90;;;13.70;99.90;;;;;;5083475;28;20406;-83
2021/05/25 09:46:51;;;;;;;1999.90;999.90;;;13.90;99.90;;;;;;5083533;28;20402;-83
2021/05/25 09:53:04;;;;;;;1999.90;999.90;;;14.00;99.90;;;;;;5079305;28;20164;-84
2021/05/25 09:56:11;;;;;;;1999.90;999.90;;;13.90;99.90;;;;;;5079835;28;20167;-84
2021/05/25 09:58:40;;;;;;;1999.90;999.90;;;13.90;99.90;;;;;;5078341;28;20951;-84
2021/05/25 10:01:34;;;;;;;1999.90;999.90;;;13.70;99.90;;;;;;5076870;28;20483;-82
2021/05/25 10:05:03;;;;;;;;;;;;;;;;;;;;;
2021/05/25 10:11:54;;;;;;;1999.90;999.90;;;13.20;99.90;;;;;;4898213;29;20606;-81
2021/05/25 10:15:05;;;;;;;1999.90;999.90;;;13.20;99.90;;;;;;4867181;29;20208;-82
2021/05/25 10:18:37;;;;;;;1999.90;999.90;;;13.20;99.90;;;;;;4918633;28;20647;-83
2021/05/25 10:21:39;;;;;;;1999.90;999.90;;;13.30;99.90;;;;;;4973210;28;20178;-83
2021/05/25 10:24:53;;;;;;;1999.90;999.90;;;13.20;99.90;;;;;;4939382;28;20203;-82
2021/05/25 10:27:47;;;;;;;1999.90;999.90;;;13.10;99.90;;;;;;4960323;28;20171;-82
2021/05/25 10:30:58;;;;;;;1999.90;999.90;;;13.10;99.90;;;;;;4992743;28;20178;-84
2021/05/25 10:34:34;;;;;;;1999.90;999.90;;;13.40;99.90;;;;;;5005409;28;20408;-84
2021/05/25 10:37:13;;;;;;;1999.90;999.90;;;13.50;99.90;;;;;;5002138;28;20781;-82
2021/05/25 10:40:21;;;;;;;1999.90;999.90;;;13.80;99.90;;;;;;5076386;28;20425;-83
2021/05/25 10:43:18;;;;;;;1999.90;999.90;;;14.00;99.90;;;;;;5076277;28;20214;-82
2021/05/25 10:46:15;;;;;;;1999.90;999.90;;;14.10;99.90;;;;;;5077102;28;20418;-83
2021/05/25 10:49:03;;;;;;;1999.90;999.90;;;13.90;99.90;;;;;;5065342;28;20438;-83
2021/05/25 10:52:17;;;;;;;1999.90;999.90;;;13.60;99.90;;;;;;5076416;28;20769;-83
2021/05/25 10:54:59;;;;;;;1999.90;999.90;;;13.70;99.90;;;;;;5075245;28;20418;-83
2021/05/25 10:57:59;;;;;;;1999.90;999.90;;;13.70;99.90;;;;;;5075342;28;20421;-82
2021/05/25 11:04:33;;;;;;;1999.90;999.90;;;14.00;99.90;;;;;;5025847;28;20458;-82
2021/05/25 11:10:33;;;;;;;1999.90;999.90;;;14.00;99.90;;;;;;5044050;28;20460;-82
2021/05/25 11:16:41;;;;;;;1999.90;999.90;;;14.80;99.90;;;;;;4997941;28;20409;-85
2021/05/25 11:19:17;;;;;;;1999.90;999.90;;;15.00;99.90;;;;;;5021519;28;20479;-85
2021/05/25 11:22:11;;;;;;;1999.90;999.90;;;15.30;99.90;;;;;;5066138;28;20821;-83
2021/05/25 11:25:01;;;;;;;1999.90;999.90;;;15.60;99.90;;;;;;5079461;28;20446;-83
2021/05/25 11:28:30;;;;;;;1999.90;999.90;;;15.90;99.90;;;;;;5078223;28;20412;-83
2021/05/25 11:31:25;;;;;;;1999.90;999.90;;;16.40;98.90;;;;;;5077512;28;20393;-83
2021/05/25 11:37:32;;;;;;;1999.90;999.90;;;16.90;95.30;;;;;;5127951;22;20482;-81
2021/05/25 11:39:57;;;;;;;1999.90;999.90;;;17.40;94.80;;;;;;5080548;28;20464;-80
2021/05/25 11:42:31;;;;;;;1999.90;999.90;;;17.50;91.70;;;;;;5082067;28;20423;-80
2021/05/25 11:44:58;;;;;;;1999.90;999.90;;;17.40;89.50;;;;;;5083814;28;20270;-81
2021/05/25 11:47:25;;;;;;;1999.90;999.90;;;17.60;94.60;;;;;;5083660;28;20405;-81
2021/05/25 11:49:51;;;;;;;1999.90;999.90;;;18.00;95.80;;;;;;5081220;28;20396;-79
2021/05/25 11:52:19;;;;;;;1999.90;999.90;;;18.00;87.90;;;;;;5080187;28;20406;-78
2021/05/25 11:54:45;;;;;;;1999.90;999.90;;;17.90;94.00;;;;;;5079422;28;20438;-78
2021/05/25 11:57:34;;;;;;;1999.90;999.90;;;18.20;96.10;;;;;;5081112;28;20407;-78
2021/05/25 12:00:04;;;;;;;1999.90;999.90;;;18.40;93.40;;;;;;5081868;28;20402;-80
2021/05/25 12:02:32;;;;;;;1999.90;999.90;;;18.60;84.90;;;;;;5082613;28;20401;-79
2021/05/25 12:05:07;;;;;;;1999.90;999.90;;;18.50;54.80;;;;;;5082903;28;20871;-78
2021/05/25 12:07:33;;;;;;;1999.90;999.90;;;18.40;59.60;;;;;;5082178;28;20434;-79
2021/05/25 12:10:01;;;;;;;1999.90;999.90;;;18.50;63.20;;;;;;5082856;28;20425;-78
2021/05/25 12:12:29;;;;;;;1999.90;999.90;;;18.40;58.90;;;;;;5082810;28;20395;-79
2021/05/25 12:14:58;;;;;;;1999.90;999.90;;;18.10;52.30;;;;;;5083972;28;20470;-80
2021/05/25 12:17:25;;;;;;;1999.90;999.90;;;17.50;80.10;;;;;;5080159;28;20425;-81
2021/05/25 12:19:56;;;;;;;1999.90;999.90;;;16.80;98.80;;;;;;5080599;28;20441;-80
2021/05/25 12:22:35;;;;;;;1999.90;999.90;;;16.50;99.60;;;;;;5081782;28;20403;-80
2021/05/25 12:25:20;;;;;;;1999.90;999.90;;;16.00;99.90;;;;;;5075250;28;20425;-84
2021/05/25 12:27:50;;;;;;;1999.90;999.90;;;15.40;99.90;;;;;;5073522;28;20944;-81
2021/05/25 12:30:18;;;;;;;1999.90;999.90;;;14.80;99.90;;;;;;5074599;28;20397;-81
2021/05/25 12:32:44;;;;;;;1999.90;999.90;;;14.10;99.90;;;;;;5073888;28;20434;-82
2021/05/25 12:35:11;;;;;;;1999.90;999.90;;;13.50;99.90;;;;;;5077082;28;20415;-81
2021/05/25 12:37:38;;;;;;;1999.90;999.90;;;13.10;99.90;;;;;;5077585;28;20502;-81
2021/05/25 12:40:07;;;;;;;1999.90;999.90;;;12.70;99.90;;;;;;5078309;28;20551;-80
2021/05/25 12:42:37;;;;;;;1999.90;999.90;;;12.40;99.90;;;;;;5079322;28;20426;-80
2021/05/25 12:45:25;;;;;;;1999.90;999.90;;;12.20;99.90;;;;;;5080238;28;20422;-80
2021/05/25 12:47:58;;;;;;;1999.90;999.90;;;12.10;99.90;;;;;;5079968;28;20547;-81
2021/05/25 12:50:33;;;;;;;1999.90;999.90;;;11.90;99.90;;;;;;5078123;28;20212;-80
2021/05/25 12:53:07;;;;;;;1999.90;999.90;;;11.90;99.90;;;;;;5080283;28;20155;-82
2021/05/25 12:55:35;;;;;;;1999.90;999.90;;;12.00;99.90;;;;;;5079542;28;20158;-80
2021/05/25 12:58:01;;;;;;;1999.90;999.90;;;12.00;99.90;;;;;;5078341;28;20617;-80
2021/05/25 13:00:29;;;;;;;1999.90;999.90;;;12.10;99.90;;;;;;5078782;28;20202;-81
2021/05/25 13:02:56;;;;;;;1999.90;999.90;;;12.30;99.90;;;;;;5077921;28;20406;-80
2021/05/25 13:05:34;;;;;;;1999.90;999.90;;;12.50;99.90;;;;;;5080789;28;20677;-80
2021/05/25 13:08:07;;;;;;;1999.90;999.90;;;12.70;99.90;;;;;;5081461;28;20187;-81
2021/05/25 13:10:40;;;;;;;1999.90;999.90;;;12.70;99.90;;;;;;5080709;28;20539;-80
2021/05/25 13:13:12;;;;;;;1999.90;999.90;;;12.70;99.90;;;;;;5080976;28;20596;-81
2021/05/25 13:15:41;;;;;;;1999.90;999.90;;;12.70;99.90;;;;;;5081788;28;20175;-80
2021/05/25 13:18:10;;;;;;;1999.90;999.90;;;12.70;99.90;;;;;;5082278;28;20188;-80
2021/05/25 13:20:36;;;;;;;1999.90;999.90;;;12.80;99.90;;;;;;5082041;28;20160;-80
2021/05/25 13:23:25;;;;;;;1999.90;999.90;;;12.80;99.90;;;;;;5080905;28;20168;-80
2021/05/25 13:26:07;;;;;;;1999.90;999.90;;;12.90;99.90;;;;;;5080496;28;20186;-80
2021/05/25 13:29:09;;;;;;;1999.90;999.90;;;13.00;99.90;;;;;;5081423;28;20418;-80
2021/05/25 13:31:38;;;;;;;1999.90;999.90;;;13.10;99.90;;;;;;5050454;28;20530;-80
2021/05/25 13:34:19;;;;;;;1999.90;999.90;;;13.20;99.90;;;;;;5083461;28;20160;-80
2021/05/25 13:36:46;;;;;;;1999.90;999.90;;;13.20;99.90;;;;;;5083532;28;20445;-80
2021/05/25 13:39:14;;;;;;;1999.90;999.90;;;13.10;99.90;;;;;;5083479;28;20214;-81
2021/05/25 13:41:40;;;;;;;1999.90;999.90;;;13.20;99.90;;;;;;5083681;28;20421;-80
2021/05/25 13:44:07;;;;;;;1999.90;999.90;;;13.10;99.90;;;;;;5084077;28;20191;-80
2021/05/25 13:46:34;;;;;;;1999.90;999.90;;;13.00;99.90;;;;;;5083922;28;20402;-81
2021/05/25 13:49:00;;;;;;;1999.90;999.90;;;13.00;99.90;;;;;;5083158;28;20475;-80
2021/05/25 13:51:27;;;;;;;1999.90;999.90;;;13.00;99.90;;;;;;5081806;28;20156;-80
2021/05/25 13:53:54;;;;;;;1999.90;999.90;;;13.10;99.90;;;;;;5082733;28;20515;-79
2021/05/25 13:56:24;;;;;;;1999.90;999.90;;;13.30;99.90;;;;;;5084009;28;20175;-80
2021/05/25 13:58:52;;;;;;;1999.90;999.90;;;13.50;99.90;;;;;;5084414;28;20210;-80
2021/05/25 14:03:44;;;;;;;1999.90;999.90;;;13.90;99.90;;;;;;5083391;28;20434;-80
2021/05/25 14:06:10;;;;;;;1999.90;999.90;;;14.10;99.90;;;;;;5084098;28;20171;-80
2021/05/25 14:08:36;;;;;;;1999.90;999.90;;;14.20;99.90;;;;;;5083196;28;20789;-80
2021/05/25 14:11:02;;;;;;;1999.90;999.90;;;14.30;99.90;;;;;;5084361;28;20239;-80
2021/05/25 14:13:29;;;;;;;1999.90;999.90;;;14.50;99.90;;;;;;5082720;28;20179;-80
2021/05/25 14:15:55;;;;;;;1999.90;999.90;;;14.50;99.90;;;;;;5082353;28;20402;-80
2021/05/25 14:18:23;;;;;;;1999.90;999.90;;;14.70;99.90;;;;;;5082924;28;20417;-80
2021/05/25 14:20:50;;;;;;;1999.90;999.90;;;14.80;99.90;;;;;;5083188;28;20902;-80
2021/05/25 14:23:16;;;;;;;1999.90;999.90;;;14.80;99.90;;;;;;5084141;28;20399;-79
2021/05/25 14:25:42;;;;;;;1999.90;999.90;;;14.90;99.90;;;;;;5084160;28;20398;-80
2021/05/25 14:28:09;;;;;;;1999.90;999.90;;;15.00;99.90;;;;;;5084445;28;20421;-80
2021/05/25 14:30:35;;;;;;;1999.90;999.90;;;15.10;99.90;;;;;;5083615;28;20497;-80
2021/05/25 14:33:01;;;;;;;1999.90;999.90;;;14.90;99.90;;;;;;5085332;28;20410;-80
2021/05/25 14:35:27;;;;;;;1999.90;999.90;;;15.20;99.90;;;;;;5084687;28;20410;-80
2021/05/25 14:37:53;;;;;;;1999.90;999.90;;;15.30;99.90;;;;;;5084846;28;20201;-80
2021/05/25 14:40:18;;;;;;;1999.90;999.90;;;15.40;99.90;;;;;;5084975;28;20168;-80
2021/05/25 14:42:44;;;;;;;1999.90;999.90;;;15.40;99.90;;;;;;5085334;28;20195;-80
2021/05/25 14:45:10;;;;;;;1999.90;999.90;;;15.40;99.90;;;;;;5084857;28;20195;-80
2021/05/25 14:47:36;;;;;;;1999.90;999.90;;;15.20;99.90;;;;;;5084144;28;20177;-80